createdAt,value
2018-02-18T00:01:14.048Z,17.37
2018-02-18T00:03:40.643Z,16.73
2018-02-18T00:06:07.248Z,15.73
2018-02-18T00:08:33.855Z,17.27
2018-02-18T00:11:00.459Z,17.80
2018-02-18T00:13:27.059Z,13.90
2018-02-18T00:15:53.659Z,18.33
2018-02-18T00:18:20.264Z,15.70
2018-02-18T00:20:46.876Z,17.50
2018-02-18T00:23:13.491Z,15.30
2018-02-18T00:25:40.092Z,15.80
2018-02-18T00:28:06.688Z,17.90
2018-02-18T00:30:33.283Z,12.90
2018-02-18T00:32:59.907Z,18.83
2018-02-18T00:35:26.487Z,25.50
2018-02-18T00:37:53.087Z,16.17
2018-02-18T00:40:19.688Z,14.13
2018-02-18T00:42:46.280Z,18.77
2018-02-18T00:45:12.889Z,14.57
2018-02-18T00:47:39.483Z,15.00
2018-02-18T00:50:06.083Z,15.83
2018-02-18T00:52:32.688Z,14.83
2018-02-18T00:54:59.279Z,14.67
2018-02-18T00:57:25.892Z,15.37
2018-02-18T00:59:52.489Z,19.50
2018-02-18T01:02:19.083Z,20.07
2018-02-18T01:04:45.692Z,17.20
2018-02-18T01:07:12.288Z,15.90
2018-02-18T01:09:38.903Z,15.70
2018-02-18T01:12:05.576Z,13.67
2018-02-18T01:14:32.168Z,14.83
2018-02-18T01:16:58.814Z,16.90
2018-02-18T01:19:25.395Z,16.30
2018-02-18T01:21:51.995Z,15.33
2018-02-18T01:24:18.596Z,15.90
2018-02-18T01:26:45.200Z,16.00
2018-02-18T01:29:11.804Z,22.43
2018-02-18T01:31:38.399Z,15.83
2018-02-18T01:34:05.012Z,18.67
2018-02-18T01:36:31.604Z,19.03
2018-02-18T01:38:58.200Z,15.60
2018-02-18T01:41:24.803Z,18.07
2018-02-18T01:43:51.400Z,20.07
2018-02-18T01:46:18.015Z,20.23
2018-02-18T01:48:44.627Z,18.03
2018-02-18T01:51:11.216Z,20.40
2018-02-18T01:53:37.807Z,16.43
2018-02-18T01:56:04.415Z,19.53
2018-02-18T01:58:31.014Z,15.87
2018-02-18T02:00:57.604Z,17.53
2018-02-18T02:03:24.223Z,17.67
2018-02-18T02:05:50.800Z,15.50
2018-02-18T02:08:17.392Z,21.93
2018-02-18T02:10:43.999Z,15.43
2018-02-18T02:13:10.592Z,20.73
2018-02-18T02:15:37.187Z,17.27
2018-02-18T02:18:03.799Z,21.27
2018-02-18T02:20:30.396Z,16.67
2018-02-18T02:22:57.007Z,22.00
2018-02-18T02:25:23.600Z,20.20
2018-02-18T02:27:50.201Z,24.10
2018-02-18T02:30:16.796Z,18.47
2018-02-18T02:32:43.408Z,17.73
2018-02-18T02:35:10.013Z,21.13
2018-02-18T02:37:36.603Z,18.00
2018-02-18T02:40:03.218Z,20.83
2018-02-18T02:42:29.815Z,16.57
2018-02-18T02:44:56.411Z,19.40
2018-02-18T02:47:23.035Z,21.67
2018-02-18T02:49:49.636Z,19.50
2018-02-18T02:52:16.312Z,19.40
2018-02-18T02:54:42.850Z,18.93
2018-02-18T02:57:09.444Z,21.67
2018-02-18T02:59:36.057Z,20.33
2018-02-18T03:02:02.654Z,21.43
2018-02-18T03:04:29.249Z,21.30
2018-02-18T03:06:55.851Z,19.73
2018-02-18T03:09:22.452Z,23.70
2018-02-18T03:11:49.064Z,19.83
2018-02-18T03:14:15.662Z,20.43
2018-02-18T03:16:42.260Z,18.80
2018-02-18T03:19:08.867Z,22.07
2018-02-18T03:21:35.461Z,21.13
2018-02-18T03:24:02.079Z,18.73
2018-02-18T03:26:28.671Z,20.93
2018-02-18T03:28:55.263Z,23.10
2018-02-18T03:31:21.874Z,21.27
2018-02-18T03:33:48.471Z,19.20
2018-02-18T03:36:15.294Z,19.43
2018-02-18T03:38:41.875Z,20.27
2018-02-18T03:41:08.501Z,24.03
2018-02-18T03:43:35.087Z,20.37
2018-02-18T03:46:01.683Z,26.33
2018-02-18T03:48:28.312Z,22.33
2018-02-18T03:50:54.903Z,24.10
2018-02-18T03:53:21.504Z,24.10
2018-02-18T03:55:48.104Z,23.27
2018-02-18T03:58:14.715Z,25.77
2018-02-18T04:00:41.326Z,22.27
2018-02-18T04:03:07.915Z,23.33
2018-02-18T04:05:34.520Z,23.57
2018-02-18T04:08:01.130Z,21.20
2018-02-18T04:10:27.723Z,25.93
2018-02-18T04:12:54.333Z,21.00
2018-02-18T04:15:20.928Z,21.63
2018-02-18T04:17:47.539Z,25.10
2018-02-18T04:20:14.142Z,25.97
2018-02-18T04:22:40.743Z,25.07
2018-02-18T04:25:07.352Z,27.20
2018-02-18T04:27:33.948Z,29.93
2018-02-18T04:30:00.543Z,26.60
2018-02-18T04:32:27.150Z,23.93
2018-02-18T04:34:53.748Z,24.67
2018-02-18T04:37:20.360Z,25.23
2018-02-18T04:39:46.963Z,21.77
2018-02-18T04:42:13.552Z,28.23
2018-02-18T04:44:40.193Z,25.83
2018-02-18T04:47:06.751Z,24.03
2018-02-18T04:49:33.358Z,20.03
2018-02-18T04:51:59.950Z,29.50
2018-02-18T04:54:26.556Z,22.37
2018-02-18T04:56:53.150Z,24.10
2018-02-18T04:59:19.743Z,28.33
2018-02-18T05:01:46.355Z,24.00
2018-02-18T05:04:12.957Z,26.67
2018-02-18T05:06:39.551Z,25.80
2018-02-18T05:09:06.150Z,23.53
2018-02-18T05:11:32.759Z,22.27
2018-02-18T05:13:59.372Z,23.90
2018-02-18T05:16:25.963Z,22.93
2018-02-18T05:18:52.560Z,24.20
2018-02-18T05:21:19.161Z,23.77
2018-02-18T05:23:45.752Z,25.53
2018-02-18T05:26:12.364Z,26.00
2018-02-18T05:28:38.960Z,22.47
2018-02-18T05:31:05.550Z,23.10
2018-02-18T05:33:32.164Z,25.37
2018-02-18T05:35:58.763Z,26.70
2018-02-18T05:38:25.369Z,22.23
2018-02-18T05:40:52.005Z,27.33
2018-02-18T05:43:18.548Z,27.27
2018-02-18T05:45:45.167Z,24.13
2018-02-18T05:48:11.768Z,24.00
2018-02-18T05:50:38.380Z,28.30
2018-02-18T05:53:04.981Z,27.07
2018-02-18T05:55:31.578Z,28.10
2018-02-18T05:57:59.023Z,28.80
2018-02-18T06:00:25.624Z,29.83
2018-02-18T06:02:52.231Z,24.50
2018-02-18T06:05:18.827Z,25.70
2018-02-18T06:07:45.429Z,26.33
2018-02-18T06:10:12.034Z,25.93
2018-02-18T06:12:38.622Z,26.77
2018-02-18T06:15:05.245Z,27.43
2018-02-18T06:17:31.849Z,29.27
2018-02-18T06:19:58.443Z,30.10
2018-02-18T06:22:25.060Z,28.47
2018-02-18T06:24:51.660Z,25.17
2018-02-18T06:27:18.273Z,30.03
2018-02-18T06:29:44.868Z,31.13
2018-02-18T06:32:11.464Z,33.60
2018-02-18T06:34:38.068Z,29.60
2018-02-18T06:37:04.675Z,30.40
2018-02-18T06:39:31.289Z,28.97
2018-02-18T06:41:57.884Z,26.40
2018-02-18T06:44:24.479Z,29.70
2018-02-18T06:46:51.084Z,32.60
2018-02-18T06:49:17.679Z,27.57
2018-02-18T06:51:44.291Z,31.73
2018-02-18T06:54:10.894Z,30.40
2018-02-18T06:56:37.486Z,29.27
2018-02-18T06:59:04.089Z,28.37
2018-02-18T07:01:30.684Z,31.60
2018-02-18T07:03:57.294Z,29.47
2018-02-18T07:06:23.892Z,42.73
2018-02-18T07:08:50.606Z,35.23
2018-02-18T07:11:17.195Z,32.17
2018-02-18T07:13:43.815Z,34.53
2018-02-18T07:16:10.416Z,32.63
2018-02-18T07:18:37.006Z,32.47
2018-02-18T07:21:03.607Z,33.93
2018-02-18T07:23:30.220Z,36.40
2018-02-18T07:25:56.810Z,36.30
2018-02-18T07:28:23.419Z,39.40
2018-02-18T07:30:50.155Z,34.10
2018-02-18T07:33:16.739Z,36.80
2018-02-18T07:35:43.345Z,36.27
2018-02-18T07:38:09.948Z,36.77
2018-02-18T07:40:36.560Z,32.70
2018-02-18T07:43:03.156Z,32.67
2018-02-18T07:45:29.763Z,31.13
2018-02-18T07:47:56.367Z,32.57
2018-02-18T07:50:23.027Z,35.13
2018-02-18T07:52:49.652Z,35.20
2018-02-18T07:55:16.238Z,32.10
2018-02-18T07:57:43.768Z,33.53
2018-02-18T08:00:10.379Z,34.20
2018-02-18T08:02:36.984Z,33.67
2018-02-18T08:05:03.599Z,35.60
2018-02-18T08:07:30.190Z,33.00
2018-02-18T08:09:56.784Z,33.13
2018-02-18T08:12:23.443Z,32.23
2018-02-18T08:14:50.048Z,33.73
2018-02-18T08:17:16.682Z,36.63
2018-02-18T08:19:43.291Z,32.50
2018-02-18T08:22:09.892Z,33.57
2018-02-18T08:24:36.490Z,34.80
2018-02-18T08:27:03.091Z,40.50
2018-02-18T08:29:29.728Z,33.57
2018-02-18T08:31:56.347Z,36.40
2018-02-18T08:34:22.988Z,37.57
2018-02-18T08:36:49.624Z,36.43
2018-02-18T08:39:16.215Z,35.60
2018-02-18T08:41:42.825Z,37.77
2018-02-18T08:44:09.432Z,37.60
2018-02-18T08:46:36.046Z,32.83
2018-02-18T08:49:02.644Z,45.80
2018-02-18T08:51:29.245Z,39.93
2018-02-18T08:53:55.851Z,35.37
2018-02-18T08:56:22.448Z,32.73
2018-02-18T08:58:49.046Z,35.80
2018-02-18T09:01:15.656Z,33.50
2018-02-18T09:03:42.299Z,38.10
2018-02-18T09:06:08.880Z,39.67
2018-02-18T09:08:35.492Z,38.93
2018-02-18T09:11:02.085Z,33.87
2018-02-18T09:13:28.687Z,40.83
2018-02-18T09:15:55.300Z,36.40
2018-02-18T09:18:21.900Z,38.30
2018-02-18T09:20:48.533Z,33.40
2018-02-18T09:23:15.131Z,36.70
2018-02-18T09:25:41.724Z,32.60
2018-02-18T09:28:08.351Z,34.50
2018-02-18T09:30:34.920Z,31.93
2018-02-18T09:33:01.527Z,35.53
2018-02-18T09:35:28.136Z,39.30
2018-02-18T09:37:54.752Z,35.03
2018-02-18T09:40:21.365Z,39.80
2018-02-18T09:42:47.961Z,35.53
2018-02-18T09:45:14.703Z,33.03
2018-02-18T09:47:41.299Z,33.43
2018-02-18T09:50:07.916Z,33.23
2018-02-18T09:52:34.516Z,34.73
2018-02-18T09:55:01.119Z,33.47
2018-02-18T09:57:27.714Z,40.17
2018-02-18T09:59:54.324Z,36.83
2018-02-18T10:02:20.919Z,29.17
2018-02-18T10:04:47.515Z,29.77
2018-02-18T10:07:14.123Z,31.83
2018-02-18T10:09:40.724Z,28.40
2018-02-18T10:12:07.340Z,33.20
2018-02-18T10:14:33.978Z,34.20
2018-02-18T10:17:00.568Z,35.10
2018-02-18T10:19:27.182Z,26.40
2018-02-18T10:21:53.776Z,31.83
2018-02-18T10:24:20.396Z,30.50
2018-02-18T10:26:47.033Z,32.50
2018-02-18T10:29:13.633Z,30.23
2018-02-18T10:31:40.258Z,31.87
2018-02-18T10:34:06.856Z,30.33
2018-02-18T10:36:33.486Z,39.03
2018-02-18T10:39:00.095Z,32.97
2018-02-18T10:41:26.701Z,25.63
2018-02-18T10:43:53.350Z,30.53
2018-02-18T10:46:19.951Z,30.17
2018-02-18T10:48:46.590Z,31.17
2018-02-18T10:51:13.191Z,34.23
2018-02-18T10:53:39.799Z,28.23
2018-02-18T10:56:06.407Z,33.27
2018-02-18T10:58:33.009Z,28.90
2018-02-18T11:00:59.611Z,24.93
2018-02-18T11:03:26.212Z,31.63
2018-02-18T11:05:52.804Z,29.47
2018-02-18T11:08:19.442Z,33.60
2018-02-18T11:10:46.035Z,30.90
2018-02-18T11:13:12.656Z,31.73
2018-02-18T11:15:39.592Z,24.43
2018-02-18T11:18:07.171Z,23.20
2018-02-18T11:20:33.778Z,21.77
2018-02-18T11:23:00.385Z,30.40
2018-02-18T11:25:27.002Z,26.00
2018-02-18T11:27:53.596Z,22.50
2018-02-18T11:30:20.219Z,25.27
2018-02-18T11:32:46.824Z,27.80
2018-02-18T11:35:13.426Z,26.70
2018-02-18T11:37:40.048Z,26.37
2018-02-18T11:40:06.644Z,21.60
2018-02-18T11:42:33.244Z,26.23
2018-02-18T11:44:59.859Z,24.17
2018-02-18T11:47:26.460Z,22.03
2018-02-18T11:49:53.070Z,23.67
2018-02-18T11:52:19.700Z,22.77
2018-02-18T11:54:46.291Z,22.67
2018-02-18T11:57:12.896Z,28.33
2018-02-18T11:59:39.561Z,24.00
2018-02-18T12:02:06.210Z,22.20
2018-02-18T12:04:32.791Z,23.33
2018-02-18T12:06:59.392Z,24.93
2018-02-18T12:09:25.996Z,25.13
2018-02-18T12:11:52.650Z,24.27
2018-02-18T12:14:19.215Z,23.37
2018-02-18T12:16:45.842Z,29.57
2018-02-18T12:19:12.439Z,23.47
2018-02-18T12:21:39.821Z,27.20
2018-02-18T12:24:06.420Z,25.33
2018-02-18T12:26:33.052Z,23.97
2018-02-18T12:28:59.658Z,27.07
2018-02-18T12:31:26.251Z,23.37
2018-02-18T12:33:52.887Z,24.30
2018-02-18T12:36:19.512Z,28.60
2018-02-18T12:38:46.132Z,23.07
2018-02-18T12:41:12.728Z,26.60
2018-02-18T12:43:39.325Z,21.50
2018-02-18T12:46:05.928Z,22.90
2018-02-18T12:48:32.533Z,23.77
2018-02-18T12:50:59.144Z,24.27
2018-02-18T12:53:25.756Z,25.73
2018-02-18T12:55:52.353Z,27.00
2018-02-18T12:58:18.956Z,24.10
2018-02-18T13:00:45.563Z,26.93
2018-02-18T13:03:12.180Z,20.33
2018-02-18T13:05:38.808Z,26.30
2018-02-18T13:08:05.408Z,25.10
2018-02-18T13:10:32.015Z,24.23
2018-02-18T13:12:58.651Z,23.77
2018-02-18T13:15:25.300Z,23.83
2018-02-18T13:17:51.908Z,27.27
2018-02-18T13:20:18.503Z,22.70
2018-02-18T13:22:45.104Z,19.63
2018-02-18T13:25:11.737Z,22.30
2018-02-18T13:27:38.312Z,22.33
2018-02-18T13:30:04.909Z,21.17
2018-02-18T13:32:31.585Z,25.73
2018-02-18T13:34:58.123Z,21.73
2018-02-18T13:37:24.794Z,30.03
2018-02-18T13:39:51.398Z,21.63
2018-02-18T13:42:17.991Z,17.70
2018-02-18T13:44:44.595Z,20.80
2018-02-18T13:47:11.202Z,18.17
2018-02-18T13:49:37.817Z,18.10
2018-02-18T13:52:04.416Z,18.20
2018-02-18T13:54:31.037Z,23.90
2018-02-18T13:56:57.640Z,18.73
2018-02-18T13:59:24.235Z,19.40
2018-02-18T14:01:50.840Z,15.37
2018-02-18T14:04:17.437Z,15.17
2018-02-18T14:06:44.048Z,17.30
2018-02-18T14:09:10.639Z,19.13
2018-02-18T14:11:37.243Z,16.73
2018-02-18T14:14:03.844Z,11.83
2018-02-18T14:16:30.440Z,13.43
2018-02-18T14:18:57.042Z,14.40
2018-02-18T14:21:23.639Z,15.17
2018-02-18T14:23:50.257Z,18.40
2018-02-18T14:26:16.860Z,19.77
2018-02-18T14:28:43.469Z,16.47
2018-02-18T14:31:10.092Z,18.60
2018-02-18T14:33:36.672Z,16.20
2018-02-18T14:36:03.279Z,14.87
2018-02-18T14:38:29.868Z,10.80
2018-02-18T14:40:56.492Z,15.70
2018-02-18T14:43:29.088Z,11.43
2018-02-18T14:46:01.591Z,11.97
2018-02-18T14:48:33.911Z,12.93
2018-02-18T14:51:06.560Z,10.30
2018-02-18T14:53:39.072Z,12.27
2018-02-18T14:56:23.336Z,12.73
2018-02-18T14:58:49.928Z,17.57
2018-02-18T15:01:16.549Z,14.27
2018-02-18T15:03:43.140Z,11.97
2018-02-18T15:06:09.739Z,12.73
2018-02-18T15:08:36.340Z,15.43
2018-02-18T15:11:02.936Z,17.60
2018-02-18T15:13:29.558Z,13.87
2018-02-18T15:15:56.149Z,13.70
2018-02-18T15:18:22.744Z,17.40
2018-02-18T15:20:49.339Z,18.87
2018-02-18T15:23:15.953Z,15.90
2018-02-18T15:25:42.548Z,15.73
2018-02-18T15:28:09.144Z,14.47
2018-02-18T15:30:35.764Z,16.57
2018-02-18T15:33:02.362Z,14.47
2018-02-18T15:35:28.957Z,15.50
2018-02-18T15:37:55.594Z,14.03
2018-02-18T15:40:22.167Z,18.83
2018-02-18T15:42:48.760Z,15.43
2018-02-18T15:45:15.356Z,14.80
2018-02-18T15:47:41.976Z,14.30
2018-02-18T15:50:08.572Z,12.03
2018-02-18T15:52:35.176Z,13.07
2018-02-18T15:55:01.771Z,17.83
2018-02-18T15:57:28.356Z,17.70
2018-02-18T15:59:54.967Z,18.90
2018-02-18T16:02:21.573Z,14.57
2018-02-18T16:04:48.192Z,18.17
2018-02-18T16:07:14.799Z,19.10
2018-02-18T16:09:41.395Z,19.00
2018-02-18T16:12:07.999Z,18.87
2018-02-18T16:14:34.596Z,18.00
2018-02-18T16:17:01.200Z,21.47
2018-02-18T16:19:27.799Z,21.90
2018-02-18T16:21:54.415Z,19.50
2018-02-18T16:24:21.016Z,19.60
2018-02-18T16:26:47.620Z,18.77
2018-02-18T16:29:14.225Z,22.53
2018-02-18T16:31:40.824Z,20.60
2018-02-18T16:34:07.444Z,20.83
2018-02-18T16:36:34.035Z,25.33
2018-02-18T16:39:00.672Z,24.97
2018-02-18T16:41:27.267Z,22.17
2018-02-18T16:43:53.868Z,20.20
2018-02-18T16:46:20.469Z,22.20
2018-02-18T16:48:47.079Z,25.30
2018-02-18T16:51:13.678Z,23.37
2018-02-18T16:53:40.280Z,25.57
2018-02-18T16:56:06.900Z,21.60
2018-02-18T16:58:33.493Z,24.50
2018-02-18T17:01:00.096Z,19.93
2018-02-18T17:03:26.699Z,23.13
2018-02-18T17:05:53.292Z,22.60
2018-02-18T17:08:19.899Z,24.00
2018-02-18T17:10:46.504Z,23.00
2018-02-18T17:13:13.125Z,24.43
2018-02-18T17:15:39.727Z,22.13
2018-02-18T17:18:06.324Z,22.83
2018-02-18T17:20:32.978Z,21.97
2018-02-18T17:22:59.575Z,20.37
2018-02-18T17:25:26.175Z,21.13
2018-02-18T17:27:53.702Z,24.40
2018-02-18T17:30:20.319Z,22.10
2018-02-18T17:32:47.003Z,23.77
2018-02-18T17:35:13.616Z,20.87
2018-02-18T17:37:40.212Z,23.43
2018-02-18T17:40:06.804Z,20.57
2018-02-18T17:42:33.415Z,23.47
2018-02-18T17:45:00.019Z,24.63
2018-02-18T17:47:26.628Z,23.53
2018-02-18T17:49:53.219Z,27.50
2018-02-18T17:55:17.043Z,24.57
2018-02-18T17:57:43.664Z,24.97
2018-02-18T18:00:10.260Z,28.53
2018-02-18T18:02:36.856Z,25.63
2018-02-18T18:05:03.460Z,30.07
2018-02-18T18:07:30.068Z,28.17
2018-02-18T18:09:56.685Z,25.77
2018-02-18T18:12:23.279Z,26.77
2018-02-18T18:14:49.891Z,23.63
2018-02-18T18:17:22.389Z,24.77
2018-02-18T18:19:49.009Z,25.97
2018-02-18T18:22:15.616Z,27.53
2018-02-18T18:24:42.216Z,25.67
2018-02-18T18:27:08.823Z,35.63
2018-02-18T18:29:35.415Z,30.37
2018-02-18T18:32:02.023Z,32.90
2018-02-18T18:34:28.637Z,30.00
2018-02-18T18:36:55.240Z,28.00
2018-02-18T18:39:21.843Z,26.37
2018-02-18T18:41:48.442Z,31.77
2018-02-18T18:44:15.047Z,31.57
2018-02-18T18:46:41.665Z,31.80
2018-02-18T18:49:08.248Z,27.80
2018-02-18T18:51:34.867Z,30.37
2018-02-18T18:54:01.484Z,30.17
2018-02-18T18:56:28.071Z,27.23
2018-02-18T18:58:54.671Z,34.03
2018-02-18T19:01:21.281Z,28.63
2018-02-18T19:03:47.880Z,27.73
2018-02-18T19:06:14.484Z,28.50
2018-02-18T19:08:41.078Z,32.20
2018-02-18T19:11:07.696Z,30.57
2018-02-18T19:13:34.304Z,29.27
2018-02-18T19:16:00.900Z,32.30
2018-02-18T19:18:27.503Z,26.67
2018-02-18T19:20:54.104Z,29.40
2018-02-18T19:23:20.717Z,31.70
2018-02-18T19:25:47.312Z,27.50
2018-02-18T19:28:13.936Z,26.97
2018-02-18T19:30:40.539Z,27.60
2018-02-18T19:33:07.131Z,31.10
2018-02-18T19:35:33.743Z,33.50
2018-02-18T19:38:00.341Z,30.33
2018-02-18T19:40:26.948Z,29.47
2018-02-18T19:42:53.556Z,29.93
2018-02-18T19:45:20.187Z,29.30
2018-02-18T19:47:46.796Z,34.50
2018-02-18T19:50:13.399Z,35.20
2018-02-18T19:52:40.008Z,29.60
2018-02-18T19:55:06.604Z,29.27
2018-02-18T19:57:33.207Z,33.37
2018-02-18T19:59:59.808Z,31.20
2018-02-18T20:02:26.434Z,34.20
2018-02-18T20:04:53.027Z,35.00
2018-02-18T20:07:19.624Z,31.23
2018-02-18T20:09:46.235Z,31.20
2018-02-18T20:12:12.832Z,30.07
2018-02-18T20:14:39.432Z,26.93
2018-02-18T20:17:06.027Z,29.17
2018-02-18T20:19:32.647Z,28.43
2018-02-18T20:21:59.244Z,27.33
2018-02-18T20:24:25.840Z,24.43
2018-02-18T20:26:52.448Z,27.77
2018-02-18T20:29:19.047Z,26.07
2018-02-18T20:31:45.668Z,28.17
2018-02-18T20:34:12.259Z,29.63
2018-02-18T20:36:38.884Z,31.33
2018-02-18T20:39:05.484Z,35.00
2018-02-18T20:41:32.080Z,31.63
2018-02-18T20:43:58.691Z,28.77
2018-02-18T20:46:25.283Z,28.47
2018-02-18T20:48:51.885Z,27.90
2018-02-18T20:51:18.506Z,29.30
2018-02-18T20:53:45.104Z,28.63
2018-02-18T20:56:11.704Z,32.63
2018-02-18T20:58:38.308Z,30.67
2018-02-18T21:01:05.003Z,29.57
2018-02-18T21:03:31.583Z,29.30
2018-02-18T21:05:58.187Z,26.60
2018-02-18T21:08:24.788Z,28.47
2018-02-18T21:10:51.388Z,29.33
2018-02-18T21:13:18.001Z,31.10
2018-02-18T21:15:44.595Z,30.67
2018-02-18T21:18:11.218Z,31.80
2018-02-18T21:20:37.816Z,31.97
2018-02-18T21:23:04.419Z,31.50
2018-02-18T21:25:31.029Z,26.13
2018-02-18T21:27:57.618Z,31.10
2018-02-18T21:30:24.224Z,30.97
2018-02-18T21:32:50.828Z,32.20
2018-02-18T21:35:17.471Z,27.87
2018-02-18T21:37:44.055Z,27.83
2018-02-18T21:40:10.667Z,34.80
2018-02-18T21:42:37.279Z,26.73
2018-02-18T21:45:03.876Z,28.00
2018-02-18T21:47:30.475Z,30.70
2018-02-18T21:49:57.075Z,25.77
2018-02-18T21:52:23.684Z,29.43
2018-02-18T21:54:50.288Z,32.03
2018-02-18T21:57:16.900Z,35.03
2018-02-18T21:59:43.508Z,36.23
2018-02-18T22:02:10.096Z,32.50
2018-02-18T22:04:36.698Z,31.10
2018-02-18T22:07:03.304Z,28.90
2018-02-18T22:09:29.903Z,31.10
2018-02-18T22:11:56.500Z,34.70
2018-02-18T22:14:23.111Z,36.73
2018-02-18T22:16:49.714Z,39.37
2018-02-18T22:19:16.311Z,37.97
2018-02-18T22:21:42.919Z,33.03
2018-02-18T22:24:09.519Z,34.83
2018-02-18T22:26:36.118Z,35.53
2018-02-18T22:29:02.719Z,32.20
2018-02-18T22:31:29.329Z,31.20
2018-02-18T22:33:55.926Z,39.43
2018-02-18T22:36:22.528Z,31.83
2018-02-18T22:38:49.131Z,37.07
2018-02-18T22:41:15.729Z,36.67
2018-02-18T22:43:42.332Z,33.23
2018-02-18T22:46:08.937Z,33.30
2018-02-18T22:48:35.532Z,39.23
2018-02-18T22:51:02.136Z,32.50
2018-02-18T22:53:28.731Z,37.23
2018-02-18T22:55:55.424Z,33.93
2018-02-18T22:58:22.015Z,37.50
2018-02-18T23:00:48.640Z,32.07
2018-02-18T23:03:15.280Z,34.17
2018-02-18T23:05:47.612Z,33.90
2018-02-18T23:08:14.235Z,37.20
2018-02-18T23:10:40.843Z,34.77
2018-02-18T23:13:07.465Z,38.50
2018-02-18T23:15:34.060Z,35.77
2018-02-18T23:18:00.656Z,32.50
2018-02-18T23:20:33.001Z,34.83
2018-02-18T23:22:59.596Z,33.80
2018-02-18T23:25:26.211Z,33.07
2018-02-18T23:27:52.808Z,39.00
2018-02-18T23:30:19.440Z,34.80
2018-02-18T23:32:46.051Z,36.33
2018-02-18T23:35:12.663Z,36.57
2018-02-18T23:37:39.260Z,34.07
2018-02-18T23:40:05.860Z,33.83
2018-02-18T23:42:32.467Z,39.63
2018-02-18T23:44:59.068Z,36.90
2018-02-18T23:47:25.671Z,35.80
2018-02-18T23:49:52.275Z,37.50
2018-02-18T23:52:18.891Z,32.10
2018-02-18T23:54:45.492Z,36.97
2018-02-18T23:57:12.087Z,36.73
2018-02-18T23:59:38.692Z,37.80
